sensor_id;sensor_type;location;lat;lon;timestamp;P1;durP1;ratioP1;P2;durP2;ratioP2
10717;SDS011;13513;42.700;23.124;2022-12-26T00:02:28;76.47;;;30.10;;
10717;SDS011;13513;42.700;23.124;2022-12-26T00:04:58;57.83;;;25.43;;
10717;SDS011;13513;42.700;23.124;2022-12-26T00:07:29;13.97;;;7.67;;
10717;SDS011;13513;42.700;23.124;2022-12-26T00:10:00;19.03;;;9.90;;
10717;SDS011;13513;42.700;23.124;2022-12-26T00:12:31;18.67;;;10.90;;
10717;SDS011;13513;42.700;23.124;2022-12-26T00:15:02;15.70;;;8.83;;
10717;SDS011;13513;42.700;23.124;2022-12-26T00:17:33;9.47;;;6.47;;
10717;SDS011;13513;42.700;23.124;2022-12-26T00:20:06;10.67;;;5.20;;
10717;SDS011;13513;42.700;23.124;2022-12-26T00:22:37;8.23;;;4.80;;
10717;SDS011;13513;42.700;23.124;2022-12-26T00:25:08;20.50;;;10.73;;
10717;SDS011;13513;42.700;23.124;2022-12-26T00:27:38;17.47;;;7.93;;
10717;SDS011;13513;42.700;23.124;2022-12-26T00:30:09;12.10;;;6.27;;
10717;SDS011;13513;42.700;23.124;2022-12-26T00:32:40;10.17;;;6.60;;
10717;SDS011;13513;42.700;23.124;2022-12-26T00:35:10;13.77;;;7.87;;
10717;SDS011;13513;42.700;23.124;2022-12-26T00:37:41;11.90;;;6.73;;
10717;SDS011;13513;42.700;23.124;2022-12-26T00:40:12;10.40;;;6.20;;
10717;SDS011;13513;42.700;23.124;2022-12-26T00:42:43;11.73;;;6.17;;
10717;SDS011;13513;42.700;23.124;2022-12-26T00:45:14;9.33;;;4.87;;
10717;SDS011;13513;42.700;23.124;2022-12-26T00:47:46;7.37;;;3.50;;
10717;SDS011;13513;42.700;23.124;2022-12-26T00:50:16;8.40;;;3.50;;
10717;SDS011;13513;42.700;23.124;2022-12-26T00:52:47;6.43;;;3.90;;
10717;SDS011;13513;42.700;23.124;2022-12-26T00:55:17;7.87;;;4.50;;
10717;SDS011;13513;42.700;23.124;2022-12-26T00:57:48;6.13;;;3.80;;
10717;SDS011;13513;42.700;23.124;2022-12-26T01:00:18;10.07;;;5.60;;
10717;SDS011;13513;42.700;23.124;2022-12-26T01:02:49;4.40;;;2.93;;
10717;SDS011;13513;42.700;23.124;2022-12-26T01:05:20;5.23;;;3.17;;
10717;SDS011;13513;42.700;23.124;2022-12-26T01:07:50;5.40;;;2.70;;
10717;SDS011;13513;42.700;23.124;2022-12-26T01:10:20;6.40;;;2.70;;
10717;SDS011;13513;42.700;23.124;2022-12-26T01:12:50;3.10;;;2.20;;
10717;SDS011;13513;42.700;23.124;2022-12-26T01:15:20;7.27;;;3.53;;
10717;SDS011;13513;42.700;23.124;2022-12-26T01:17:51;4.63;;;3.10;;
10717;SDS011;13513;42.700;23.124;2022-12-26T01:20:22;6.27;;;3.23;;
10717;SDS011;13513;42.700;23.124;2022-12-26T01:22:53;7.33;;;3.37;;
10717;SDS011;13513;42.700;23.124;2022-12-26T01:25:25;7.23;;;3.37;;
10717;SDS011;13513;42.700;23.124;2022-12-26T01:27:55;8.57;;;3.37;;
10717;SDS011;13513;42.700;23.124;2022-12-26T01:30:26;8.63;;;3.53;;
10717;SDS011;13513;42.700;23.124;2022-12-26T01:32:57;7.40;;;3.70;;
10717;SDS011;13513;42.700;23.124;2022-12-26T01:35:28;6.10;;;3.57;;
10717;SDS011;13513;42.700;23.124;2022-12-26T01:37:59;8.67;;;3.60;;
10717;SDS011;13513;42.700;23.124;2022-12-26T01:40:29;6.27;;;3.33;;
10717;SDS011;13513;42.700;23.124;2022-12-26T01:42:59;5.07;;;2.87;;
10717;SDS011;13513;42.700;23.124;2022-12-26T01:45:30;6.17;;;3.37;;
10717;SDS011;13513;42.700;23.124;2022-12-26T01:48:02;6.03;;;3.00;;
10717;SDS011;13513;42.700;23.124;2022-12-26T01:50:54;7.20;;;4.73;;
10717;SDS011;13513;42.700;23.124;2022-12-26T01:53:30;9.23;;;3.53;;
10717;SDS011;13513;42.700;23.124;2022-12-26T01:56:03;7.83;;;3.50;;
10717;SDS011;13513;42.700;23.124;2022-12-26T01:58:34;7.80;;;4.13;;
10717;SDS011;13513;42.700;23.124;2022-12-26T02:01:09;8.63;;;3.23;;
10717;SDS011;13513;42.700;23.124;2022-12-26T02:03:40;8.50;;;3.40;;
10717;SDS011;13513;42.700;23.124;2022-12-26T02:06:29;5.33;;;3.47;;
10717;SDS011;13513;42.700;23.124;2022-12-26T02:09:01;7.97;;;3.30;;
10717;SDS011;13513;42.700;23.124;2022-12-26T02:11:40;8.03;;;3.03;;
10717;SDS011;13513;42.700;23.124;2022-12-26T02:14:10;6.07;;;3.20;;
10717;SDS011;13513;42.700;23.124;2022-12-26T02:16:41;8.83;;;3.03;;
10717;SDS011;13513;42.700;23.124;2022-12-26T02:22:08;8.00;;;2.97;;
10717;SDS011;13513;42.700;23.124;2022-12-26T02:27:47;7.93;;;4.30;;
10717;SDS011;13513;42.700;23.124;2022-12-26T02:33:19;6.67;;;3.67;;
10717;SDS011;13513;42.700;23.124;2022-12-26T02:38:44;7.73;;;3.10;;
10717;SDS011;13513;42.700;23.124;2022-12-26T02:41:19;6.87;;;3.60;;
10717;SDS011;13513;42.700;23.124;2022-12-26T02:44:06;10.10;;;4.20;;
10717;SDS011;13513;42.700;23.124;2022-12-26T02:46:39;7.30;;;4.20;;
10717;SDS011;13513;42.700;23.124;2022-12-26T02:49:27;9.73;;;3.47;;
10717;SDS011;13513;42.700;23.124;2022-12-26T02:52:00;8.37;;;3.67;;
10717;SDS011;13513;42.700;23.124;2022-12-26T02:54:47;5.37;;;2.97;;
10717;SDS011;13513;42.700;23.124;2022-12-26T02:57:48;8.03;;;3.20;;
10717;SDS011;13513;42.700;23.124;2022-12-26T03:00:37;7.67;;;3.70;;
10717;SDS011;13513;42.700;23.124;2022-12-26T03:03:27;6.10;;;3.47;;
10717;SDS011;13513;42.700;23.124;2022-12-26T03:06:14;5.93;;;3.80;;
10717;SDS011;13513;42.700;23.124;2022-12-26T03:09:02;8.47;;;4.80;;
10717;SDS011;13513;42.700;23.124;2022-12-26T03:11:55;6.70;;;4.57;;
10717;SDS011;13513;42.700;23.124;2022-12-26T03:14:47;8.60;;;3.83;;
10717;SDS011;13513;42.700;23.124;2022-12-26T03:17:37;7.27;;;3.43;;
10717;SDS011;13513;42.700;23.124;2022-12-26T03:20:13;5.33;;;3.17;;
10717;SDS011;13513;42.700;23.124;2022-12-26T03:22:48;8.57;;;5.20;;
10717;SDS011;13513;42.700;23.124;2022-12-26T03:25:47;7.20;;;4.17;;
10717;SDS011;13513;42.700;23.124;2022-12-26T03:28:36;6.30;;;3.43;;
10717;SDS011;13513;42.700;23.124;2022-12-26T03:31:11;5.93;;;3.30;;
10717;SDS011;13513;42.700;23.124;2022-12-26T03:33:43;6.23;;;2.80;;
10717;SDS011;13513;42.700;23.124;2022-12-26T03:45:46;5.83;;;4.30;;
10717;SDS011;13513;42.700;23.124;2022-12-26T03:51:49;11.93;;;3.80;;
10717;SDS011;13513;42.700;23.124;2022-12-26T03:57:52;6.30;;;3.83;;
10717;SDS011;13513;42.700;23.124;2022-12-26T04:00:38;4.27;;;3.20;;
10717;SDS011;13513;42.700;23.124;2022-12-26T04:03:28;5.77;;;3.23;;
10717;SDS011;13513;42.700;23.124;2022-12-26T04:06:18;7.40;;;3.60;;
10717;SDS011;13513;42.700;23.124;2022-12-26T04:09:11;8.73;;;4.40;;
10717;SDS011;13513;42.700;23.124;2022-12-26T04:11:57;6.77;;;3.83;;
10717;SDS011;13513;42.700;23.124;2022-12-26T04:17:44;7.90;;;4.20;;
10717;SDS011;13513;42.700;23.124;2022-12-26T04:23:41;6.97;;;4.10;;
10717;SDS011;13513;42.700;23.124;2022-12-26T04:26:59;7.33;;;4.50;;
10717;SDS011;13513;42.700;23.124;2022-12-26T04:29:03;5.77;;;4.40;;
10717;SDS011;13513;42.700;23.124;2022-12-26T04:32:12;6.87;;;5.00;;
10717;SDS011;13513;42.700;23.124;2022-12-26T04:35:05;7.83;;;4.30;;
10717;SDS011;13513;42.700;23.124;2022-12-26T04:37:52;5.67;;;4.03;;
10717;SDS011;13513;42.700;23.124;2022-12-26T04:40:42;6.53;;;3.50;;
10717;SDS011;13513;42.700;23.124;2022-12-26T04:43:29;7.20;;;3.17;;
10717;SDS011;13513;42.700;23.124;2022-12-26T04:46:17;5.90;;;2.80;;
10717;SDS011;13513;42.700;23.124;2022-12-26T04:48:49;9.70;;;3.87;;
10717;SDS011;13513;42.700;23.124;2022-12-26T04:51:37;7.40;;;3.50;;
10717;SDS011;13513;42.700;23.124;2022-12-26T04:54:07;9.47;;;3.67;;
10717;SDS011;13513;42.700;23.124;2022-12-26T04:56:38;8.70;;;3.50;;
10717;SDS011;13513;42.700;23.124;2022-12-26T04:59:09;9.60;;;4.20;;
10717;SDS011;13513;42.700;23.124;2022-12-26T05:01:39;7.00;;;3.40;;
10717;SDS011;13513;42.700;23.124;2022-12-26T05:04:26;7.47;;;3.40;;
10717;SDS011;13513;42.700;23.124;2022-12-26T05:07:21;5.53;;;3.03;;
10717;SDS011;13513;42.700;23.124;2022-12-26T05:10:07;6.87;;;2.83;;
10717;SDS011;13513;42.700;23.124;2022-12-26T05:12:38;5.87;;;3.13;;
10717;SDS011;13513;42.700;23.124;2022-12-26T05:15:08;5.93;;;2.80;;
10717;SDS011;13513;42.700;23.124;2022-12-26T05:17:39;4.33;;;3.10;;
10717;SDS011;13513;42.700;23.124;2022-12-26T05:20:26;5.80;;;3.20;;
10717;SDS011;13513;42.700;23.124;2022-12-26T05:22:58;5.27;;;3.07;;
10717;SDS011;13513;42.700;23.124;2022-12-26T05:25:46;3.90;;;2.33;;
10717;SDS011;13513;42.700;23.124;2022-12-26T05:28:34;4.87;;;2.37;;
10717;SDS011;13513;42.700;23.124;2022-12-26T05:31:11;8.67;;;4.93;;
10717;SDS011;13513;42.700;23.124;2022-12-26T05:33:43;7.23;;;2.93;;
10717;SDS011;13513;42.700;23.124;2022-12-26T05:36:32;6.30;;;3.00;;
10717;SDS011;13513;42.700;23.124;2022-12-26T05:39:03;8.67;;;2.93;;
10717;SDS011;13513;42.700;23.124;2022-12-26T05:41:34;6.53;;;2.60;;
10717;SDS011;13513;42.700;23.124;2022-12-26T05:44:06;5.40;;;3.70;;
10717;SDS011;13513;42.700;23.124;2022-12-26T05:46:37;5.00;;;3.23;;
10717;SDS011;13513;42.700;23.124;2022-12-26T05:49:09;7.90;;;3.00;;
10717;SDS011;13513;42.700;23.124;2022-12-26T05:51:39;4.87;;;2.20;;
10717;SDS011;13513;42.700;23.124;2022-12-26T05:54:10;8.20;;;3.00;;
10717;SDS011;13513;42.700;23.124;2022-12-26T05:56:41;6.10;;;4.00;;
10717;SDS011;13513;42.700;23.124;2022-12-26T05:59:12;6.10;;;2.67;;
10717;SDS011;13513;42.700;23.124;2022-12-26T06:01:43;7.57;;;3.10;;
10717;SDS011;13513;42.700;23.124;2022-12-26T06:04:14;6.53;;;2.80;;
10717;SDS011;13513;42.700;23.124;2022-12-26T06:06:45;3.87;;;2.30;;
10717;SDS011;13513;42.700;23.124;2022-12-26T06:09:16;6.73;;;2.70;;
10717;SDS011;13513;42.700;23.124;2022-12-26T06:11:47;6.03;;;3.70;;
10717;SDS011;13513;42.700;23.124;2022-12-26T06:14:17;5.10;;;3.07;;
10717;SDS011;13513;42.700;23.124;2022-12-26T06:16:48;5.73;;;3.40;;
10717;SDS011;13513;42.700;23.124;2022-12-26T06:19:17;6.27;;;2.90;;
10717;SDS011;13513;42.700;23.124;2022-12-26T06:21:48;7.03;;;2.60;;
10717;SDS011;13513;42.700;23.124;2022-12-26T06:24:19;5.50;;;3.37;;
10717;SDS011;13513;42.700;23.124;2022-12-26T06:26:49;6.27;;;3.33;;
10717;SDS011;13513;42.700;23.124;2022-12-26T06:29:21;5.50;;;4.20;;
10717;SDS011;13513;42.700;23.124;2022-12-26T06:31:52;4.70;;;3.70;;
10717;SDS011;13513;42.700;23.124;2022-12-26T06:34:23;16.93;;;8.83;;
10717;SDS011;13513;42.700;23.124;2022-12-26T06:36:54;9.17;;;6.00;;
10717;SDS011;13513;42.700;23.124;2022-12-26T06:39:24;10.17;;;5.33;;
10717;SDS011;13513;42.700;23.124;2022-12-26T06:41:54;19.50;;;10.77;;
10717;SDS011;13513;42.700;23.124;2022-12-26T06:44:25;12.63;;;7.40;;
10717;SDS011;13513;42.700;23.124;2022-12-26T06:46:56;14.93;;;8.17;;
10717;SDS011;13513;42.700;23.124;2022-12-26T06:49:27;22.50;;;11.07;;
10717;SDS011;13513;42.700;23.124;2022-12-26T06:51:58;16.17;;;9.60;;
10717;SDS011;13513;42.700;23.124;2022-12-26T06:54:29;15.87;;;10.77;;
10717;SDS011;13513;42.700;23.124;2022-12-26T06:57:00;16.33;;;10.33;;
10717;SDS011;13513;42.700;23.124;2022-12-26T06:59:31;12.83;;;7.67;;
10717;SDS011;13513;42.700;23.124;2022-12-26T07:02:01;12.90;;;7.70;;
10717;SDS011;13513;42.700;23.124;2022-12-26T07:04:32;14.17;;;9.03;;
10717;SDS011;13513;42.700;23.124;2022-12-26T07:07:03;14.57;;;7.43;;
10717;SDS011;13513;42.700;23.124;2022-12-26T07:09:34;10.57;;;6.00;;
10717;SDS011;13513;42.700;23.124;2022-12-26T07:12:05;12.33;;;6.40;;
10717;SDS011;13513;42.700;23.124;2022-12-26T07:14:35;12.13;;;6.97;;
10717;SDS011;13513;42.700;23.124;2022-12-26T07:17:07;7.22;;;5.65;;
10717;SDS011;13513;42.700;23.124;2022-12-26T07:19:38;7.65;;;5.33;;
10717;SDS011;13513;42.700;23.124;2022-12-26T07:22:09;7.87;;;5.53;;
10717;SDS011;13513;42.700;23.124;2022-12-26T07:24:40;7.47;;;5.80;;
10717;SDS011;13513;42.700;23.124;2022-12-26T07:27:10;13.00;;;8.13;;
10717;SDS011;13513;42.700;23.124;2022-12-26T07:29:42;11.30;;;7.40;;
10717;SDS011;13513;42.700;23.124;2022-12-26T07:32:13;13.30;;;7.15;;
10717;SDS011;13513;42.700;23.124;2022-12-26T07:34:46;9.50;;;6.60;;
10717;SDS011;13513;42.700;23.124;2022-12-26T07:37:16;8.15;;;5.40;;
10717;SDS011;13513;42.700;23.124;2022-12-26T07:39:48;7.03;;;5.40;;
10717;SDS011;13513;42.700;23.124;2022-12-26T07:42:19;5.80;;;4.75;;
10717;SDS011;13513;42.700;23.124;2022-12-26T07:44:49;6.75;;;4.55;;
10717;SDS011;13513;42.700;23.124;2022-12-26T07:47:20;4.85;;;3.85;;
10717;SDS011;13513;42.700;23.124;2022-12-26T07:49:51;5.97;;;4.17;;
10717;SDS011;13513;42.700;23.124;2022-12-26T07:52:22;4.65;;;3.45;;
10717;SDS011;13513;42.700;23.124;2022-12-26T07:54:53;4.70;;;3.65;;
10717;SDS011;13513;42.700;23.124;2022-12-26T07:57:24;5.58;;;3.62;;
10717;SDS011;13513;42.700;23.124;2022-12-26T07:59:55;4.35;;;3.90;;
10717;SDS011;13513;42.700;23.124;2022-12-26T08:02:25;5.85;;;3.72;;
10717;SDS011;13513;42.700;23.124;2022-12-26T08:04:56;6.22;;;4.28;;
10717;SDS011;13513;42.700;23.124;2022-12-26T08:07:28;6.10;;;4.25;;
10717;SDS011;13513;42.700;23.124;2022-12-26T08:09:58;5.78;;;4.00;;
10717;SDS011;13513;42.700;23.124;2022-12-26T08:12:31;6.50;;;3.95;;
10717;SDS011;13513;42.700;23.124;2022-12-26T08:15:01;7.55;;;4.15;;
10717;SDS011;13513;42.700;23.124;2022-12-26T08:17:32;6.87;;;4.15;;
10717;SDS011;13513;42.700;23.124;2022-12-26T08:20:03;5.75;;;4.12;;
10717;SDS011;13513;42.700;23.124;2022-12-26T08:22:34;7.85;;;3.72;;
10717;SDS011;13513;42.700;23.124;2022-12-26T08:25:05;8.30;;;3.70;;
10717;SDS011;13513;42.700;23.124;2022-12-26T08:27:36;7.12;;;3.98;;
10717;SDS011;13513;42.700;23.124;2022-12-26T08:30:08;10.43;;;5.37;;
10717;SDS011;13513;42.700;23.124;2022-12-26T08:32:41;6.87;;;3.60;;
10717;SDS011;13513;42.700;23.124;2022-12-26T08:35:13;7.08;;;3.90;;
10717;SDS011;13513;42.700;23.124;2022-12-26T08:37:45;6.00;;;4.62;;
10717;SDS011;13513;42.700;23.124;2022-12-26T08:40:15;5.47;;;4.10;;
10717;SDS011;13513;42.700;23.124;2022-12-26T08:42:46;7.72;;;4.25;;
10717;SDS011;13513;42.700;23.124;2022-12-26T08:45:17;7.50;;;4.62;;
10717;SDS011;13513;42.700;23.124;2022-12-26T08:47:47;7.25;;;4.00;;
10717;SDS011;13513;42.700;23.124;2022-12-26T08:50:18;5.60;;;3.37;;
10717;SDS011;13513;42.700;23.124;2022-12-26T08:52:49;6.12;;;3.37;;
10717;SDS011;13513;42.700;23.124;2022-12-26T08:55:19;9.70;;;3.70;;
10717;SDS011;13513;42.700;23.124;2022-12-26T08:57:50;12.63;;;3.22;;
10717;SDS011;13513;42.700;23.124;2022-12-26T09:00:20;4.97;;;3.00;;
10717;SDS011;13513;42.700;23.124;2022-12-26T09:02:52;5.28;;;3.52;;
10717;SDS011;13513;42.700;23.124;2022-12-26T09:05:22;19.23;;;13.18;;
10717;SDS011;13513;42.700;23.124;2022-12-26T09:07:53;3.92;;;3.00;;
10717;SDS011;13513;42.700;23.124;2022-12-26T09:10:24;7.67;;;3.27;;
10717;SDS011;13513;42.700;23.124;2022-12-26T09:12:54;5.45;;;3.30;;
10717;SDS011;13513;42.700;23.124;2022-12-26T09:15:25;5.28;;;3.25;;
10717;SDS011;13513;42.700;23.124;2022-12-26T09:17:55;5.45;;;2.90;;
10717;SDS011;13513;42.700;23.124;2022-12-26T09:20:26;5.90;;;3.10;;
10717;SDS011;13513;42.700;23.124;2022-12-26T09:22:57;7.75;;;3.37;;
10717;SDS011;13513;42.700;23.124;2022-12-26T09:25:28;3.90;;;3.05;;
10717;SDS011;13513;42.700;23.124;2022-12-26T09:27:59;5.37;;;2.83;;
10717;SDS011;13513;42.700;23.124;2022-12-26T09:30:29;4.58;;;3.27;;
10717;SDS011;13513;42.700;23.124;2022-12-26T09:33:00;6.22;;;2.90;;
10717;SDS011;13513;42.700;23.124;2022-12-26T09:35:34;3.25;;;2.83;;
10717;SDS011;13513;42.700;23.124;2022-12-26T09:38:08;5.05;;;3.25;;
10717;SDS011;13513;42.700;23.124;2022-12-26T09:41:17;4.55;;;3.20;;
10717;SDS011;13513;42.700;23.124;2022-12-26T09:43:40;8.55;;;5.25;;
10717;SDS011;13513;42.700;23.124;2022-12-26T09:52:03;17.70;;;12.80;;
10717;SDS011;13513;42.700;23.124;2022-12-26T09:54:33;16.33;;;11.73;;
10717;SDS011;13513;42.700;23.124;2022-12-26T09:57:15;16.67;;;11.30;;
10717;SDS011;13513;42.700;23.124;2022-12-26T09:59:54;16.20;;;11.07;;
10717;SDS011;13513;42.700;23.124;2022-12-26T10:02:25;17.03;;;9.63;;
10717;SDS011;13513;42.700;23.124;2022-12-26T10:04:56;13.23;;;9.27;;
10717;SDS011;13513;42.700;23.124;2022-12-26T10:07:47;16.40;;;9.80;;
10717;SDS011;13513;42.700;23.124;2022-12-26T10:10:38;13.67;;;9.37;;
10717;SDS011;13513;42.700;23.124;2022-12-26T10:13:22;14.00;;;10.60;;
10717;SDS011;13513;42.700;23.124;2022-12-26T10:15:59;15.43;;;9.90;;
10717;SDS011;13513;42.700;23.124;2022-12-26T10:21:41;15.17;;;9.60;;
10717;SDS011;13513;42.700;23.124;2022-12-26T10:24:19;16.97;;;10.25;;
10717;SDS011;13513;42.700;23.124;2022-12-26T10:26:50;15.35;;;8.63;;
10717;SDS011;13513;42.700;23.124;2022-12-26T10:29:26;11.18;;;8.35;;
10717;SDS011;13513;42.700;23.124;2022-12-26T10:32:01;14.18;;;7.90;;
10717;SDS011;13513;42.700;23.124;2022-12-26T10:34:41;12.30;;;7.60;;
10717;SDS011;13513;42.700;23.124;2022-12-26T10:37:25;9.80;;;6.60;;
10717;SDS011;13513;42.700;23.124;2022-12-26T10:40:18;10.27;;;7.17;;
10717;SDS011;13513;42.700;23.124;2022-12-26T10:42:53;13.15;;;6.20;;
10717;SDS011;13513;42.700;23.124;2022-12-26T10:45:37;7.80;;;6.20;;
10717;SDS011;13513;42.700;23.124;2022-12-26T10:48:11;12.13;;;6.35;;
10717;SDS011;13513;42.700;23.124;2022-12-26T10:50:45;18.35;;;9.68;;
10717;SDS011;13513;42.700;23.124;2022-12-26T10:53:17;13.60;;;7.78;;
10717;SDS011;13513;42.700;23.124;2022-12-26T10:55:48;7.37;;;4.72;;
10717;SDS011;13513;42.700;23.124;2022-12-26T11:00:51;6.75;;;4.20;;
10717;SDS011;13513;42.700;23.124;2022-12-26T11:03:22;8.53;;;4.50;;
10717;SDS011;13513;42.700;23.124;2022-12-26T11:05:54;11.85;;;6.75;;
10717;SDS011;13513;42.700;23.124;2022-12-26T11:08:29;11.90;;;8.70;;
10717;SDS011;13513;42.700;23.124;2022-12-26T11:11:10;16.95;;;12.55;;
10717;SDS011;13513;42.700;23.124;2022-12-26T11:13:52;16.12;;;10.15;;
10717;SDS011;13513;42.700;23.124;2022-12-26T11:16:33;15.68;;;9.90;;
10717;SDS011;13513;42.700;23.124;2022-12-26T11:19:04;13.22;;;9.78;;
10717;SDS011;13513;42.700;23.124;2022-12-26T11:21:36;20.30;;;12.58;;
10717;SDS011;13513;42.700;23.124;2022-12-26T11:24:15;16.25;;;10.13;;
10717;SDS011;13513;42.700;23.124;2022-12-26T11:26:45;16.93;;;10.20;;
10717;SDS011;13513;42.700;23.124;2022-12-26T11:29:16;16.27;;;10.10;;
10717;SDS011;13513;42.700;23.124;2022-12-26T11:31:56;14.87;;;10.73;;
10717;SDS011;13513;42.700;23.124;2022-12-26T11:34:38;15.10;;;10.67;;
10717;SDS011;13513;42.700;23.124;2022-12-26T11:37:04;14.87;;;9.93;;
10717;SDS011;13513;42.700;23.124;2022-12-26T11:39:36;14.70;;;10.43;;
10717;SDS011;13513;42.700;23.124;2022-12-26T11:42:10;13.05;;;8.75;;
10717;SDS011;13513;42.700;23.124;2022-12-26T11:44:41;15.75;;;9.23;;
10717;SDS011;13513;42.700;23.124;2022-12-26T11:47:13;16.12;;;9.68;;
10717;SDS011;13513;42.700;23.124;2022-12-26T11:49:45;12.82;;;8.70;;
10717;SDS011;13513;42.700;23.124;2022-12-26T12:09:17;15.53;;;9.25;;
10717;SDS011;13513;42.700;23.124;2022-12-26T12:14:59;15.08;;;9.50;;
10717;SDS011;13513;42.700;23.124;2022-12-26T12:23:03;12.60;;;8.55;;
10717;SDS011;13513;42.700;23.124;2022-12-26T12:34:23;15.78;;;10.98;;
10717;SDS011;13513;42.700;23.124;2022-12-26T12:37:10;13.25;;;8.68;;
10717;SDS011;13513;42.700;23.124;2022-12-26T12:42:30;4.35;;;3.00;;
10717;SDS011;13513;42.700;23.124;2022-12-26T12:45:04;13.35;;;8.85;;
10717;SDS011;13513;42.700;23.124;2022-12-26T12:47:57;17.35;;;11.43;;
10717;SDS011;13513;42.700;23.124;2022-12-26T12:53:58;18.37;;;10.40;;
10717;SDS011;13513;42.700;23.124;2022-12-26T12:56:36;17.10;;;9.78;;
10717;SDS011;13513;42.700;23.124;2022-12-26T13:02:18;13.65;;;9.33;;
10717;SDS011;13513;42.700;23.124;2022-12-26T13:04:50;14.28;;;9.95;;
10717;SDS011;13513;42.700;23.124;2022-12-26T13:07:22;36.03;;;20.65;;
10717;SDS011;13513;42.700;23.124;2022-12-26T13:10:04;22.32;;;14.13;;
10717;SDS011;13513;42.700;23.124;2022-12-26T13:12:36;17.47;;;9.10;;
10717;SDS011;13513;42.700;23.124;2022-12-26T13:15:16;16.12;;;11.78;;
10717;SDS011;13513;42.700;23.124;2022-12-26T13:18:02;20.08;;;9.65;;
10717;SDS011;13513;42.700;23.124;2022-12-26T13:20:32;16.75;;;10.18;;
10717;SDS011;13513;42.700;23.124;2022-12-26T13:23:17;15.73;;;9.83;;
10717;SDS011;13513;42.700;23.124;2022-12-26T13:26:23;20.83;;;12.27;;
10717;SDS011;13513;42.700;23.124;2022-12-26T13:31:38;18.83;;;9.40;;
10717;SDS011;13513;42.700;23.124;2022-12-26T13:34:13;10.20;;;6.30;;
10717;SDS011;13513;42.700;23.124;2022-12-26T13:36:46;9.60;;;6.47;;
10717;SDS011;13513;42.700;23.124;2022-12-26T13:39:30;9.43;;;5.90;;
10717;SDS011;13513;42.700;23.124;2022-12-26T13:47:57;8.40;;;5.70;;
10717;SDS011;13513;42.700;23.124;2022-12-26T13:56:03;9.70;;;5.50;;
10717;SDS011;13513;42.700;23.124;2022-12-26T13:58:54;7.97;;;5.30;;
10717;SDS011;13513;42.700;23.124;2022-12-26T14:04:47;9.23;;;5.23;;
10717;SDS011;13513;42.700;23.124;2022-12-26T14:07:37;8.80;;;4.93;;
10717;SDS011;13513;42.700;23.124;2022-12-26T14:10:05;12.83;;;4.70;;
10717;SDS011;13513;42.700;23.124;2022-12-26T14:15:19;6.33;;;4.30;;
10717;SDS011;13513;42.700;23.124;2022-12-26T14:21:54;7.03;;;4.50;;
10717;SDS011;13513;42.700;23.124;2022-12-26T14:23:51;6.10;;;3.80;;
10717;SDS011;13513;42.700;23.124;2022-12-26T14:26:43;6.30;;;4.63;;
10717;SDS011;13513;42.700;23.124;2022-12-26T14:29:40;10.37;;;4.60;;
10717;SDS011;13513;42.700;23.124;2022-12-26T14:32:38;6.80;;;4.73;;
10717;SDS011;13513;42.700;23.124;2022-12-26T14:35:13;6.63;;;3.87;;
10717;SDS011;13513;42.700;23.124;2022-12-26T14:37:56;6.27;;;3.53;;
10717;SDS011;13513;42.700;23.124;2022-12-26T14:40:30;9.47;;;3.73;;
10717;SDS011;13513;42.700;23.124;2022-12-26T14:45:40;8.00;;;3.73;;
10717;SDS011;13513;42.700;23.124;2022-12-26T14:53:44;6.13;;;3.37;;
10717;SDS011;13513;42.700;23.124;2022-12-26T15:01:48;7.43;;;3.77;;
10717;SDS011;13513;42.700;23.124;2022-12-26T15:07:06;6.03;;;3.07;;
10717;SDS011;13513;42.700;23.124;2022-12-26T15:09:57;4.47;;;2.60;;
10717;SDS011;13513;42.700;23.124;2022-12-26T15:15:33;5.70;;;2.73;;
10717;SDS011;13513;42.700;23.124;2022-12-26T15:29:30;8.67;;;4.30;;
10717;SDS011;13513;42.700;23.124;2022-12-26T15:32:06;5.33;;;3.10;;
10717;SDS011;13513;42.700;23.124;2022-12-26T15:40:59;7.70;;;2.83;;
10717;SDS011;13513;42.700;23.124;2022-12-26T15:43:45;6.20;;;2.70;;
10717;SDS011;13513;42.700;23.124;2022-12-26T15:46:30;8.07;;;3.10;;
10717;SDS011;13513;42.700;23.124;2022-12-26T15:49:21;4.80;;;2.57;;
10717;SDS011;13513;42.700;23.124;2022-12-26T15:55:08;4.10;;;2.83;;
10717;SDS011;13513;42.700;23.124;2022-12-26T16:00:25;4.43;;;2.80;;
10717;SDS011;13513;42.700;23.124;2022-12-26T16:06:11;6.40;;;3.03;;
10717;SDS011;13513;42.700;23.124;2022-12-26T16:11:51;6.33;;;2.60;;
10717;SDS011;13513;42.700;23.124;2022-12-26T16:14:33;6.40;;;2.77;;
10717;SDS011;13513;42.700;23.124;2022-12-26T16:19:45;5.10;;;2.53;;
10717;SDS011;13513;42.700;23.124;2022-12-26T16:25:15;9.27;;;2.67;;
10717;SDS011;13513;42.700;23.124;2022-12-26T16:27:48;4.37;;;2.47;;
10717;SDS011;13513;42.700;23.124;2022-12-26T16:30:25;4.70;;;2.67;;
10717;SDS011;13513;42.700;23.124;2022-12-26T16:32:56;8.90;;;3.00;;
10717;SDS011;13513;42.700;23.124;2022-12-26T16:35:27;4.07;;;2.60;;
10717;SDS011;13513;42.700;23.124;2022-12-26T16:38:01;6.03;;;2.87;;
10717;SDS011;13513;42.700;23.124;2022-12-26T16:45:58;6.60;;;2.50;;
10717;SDS011;13513;42.700;23.124;2022-12-26T16:48:30;5.30;;;3.07;;
10717;SDS011;13513;42.700;23.124;2022-12-26T16:51:03;3.33;;;2.80;;
10717;SDS011;13513;42.700;23.124;2022-12-26T16:56:14;4.80;;;2.70;;
10717;SDS011;13513;42.700;23.124;2022-12-26T16:59:08;5.10;;;3.00;;
10717;SDS011;13513;42.700;23.124;2022-12-26T17:01:41;3.60;;;2.87;;
10717;SDS011;13513;42.700;23.124;2022-12-26T17:04:20;4.53;;;2.40;;
10717;SDS011;13513;42.700;23.124;2022-12-26T17:07:05;4.73;;;2.40;;
10717;SDS011;13513;42.700;23.124;2022-12-26T17:09:39;11.00;;;3.03;;
10717;SDS011;13513;42.700;23.124;2022-12-26T17:12:19;3.93;;;2.47;;
10717;SDS011;13513;42.700;23.124;2022-12-26T17:14:49;5.63;;;2.70;;
10717;SDS011;13513;42.700;23.124;2022-12-26T17:19:56;8.33;;;2.90;;
10717;SDS011;13513;42.700;23.124;2022-12-26T17:25:17;7.37;;;4.37;;
10717;SDS011;13513;42.700;23.124;2022-12-26T17:27:44;6.43;;;4.00;;
10717;SDS011;13513;42.700;23.124;2022-12-26T17:30:28;5.77;;;3.80;;
10717;SDS011;13513;42.700;23.124;2022-12-26T17:33:01;6.10;;;3.40;;
10717;SDS011;13513;42.700;23.124;2022-12-26T17:35:32;5.37;;;2.63;;
10717;SDS011;13513;42.700;23.124;2022-12-26T17:38:08;4.80;;;2.80;;
10717;SDS011;13513;42.700;23.124;2022-12-26T17:40:38;5.73;;;3.00;;
10717;SDS011;13513;42.700;23.124;2022-12-26T17:45:45;3.97;;;2.30;;
10717;SDS011;13513;42.700;23.124;2022-12-26T17:48:16;5.37;;;2.60;;
10717;SDS011;13513;42.700;23.124;2022-12-26T17:50:47;3.33;;;2.40;;
10717;SDS011;13513;42.700;23.124;2022-12-26T17:53:22;4.93;;;2.57;;
10717;SDS011;13513;42.700;23.124;2022-12-26T17:55:52;2.87;;;2.13;;
10717;SDS011;13513;42.700;23.124;2022-12-26T17:58:26;3.53;;;1.87;;
10717;SDS011;13513;42.700;23.124;2022-12-26T18:00:57;5.33;;;2.63;;
10717;SDS011;13513;42.700;23.124;2022-12-26T18:03:28;6.53;;;2.20;;
10717;SDS011;13513;42.700;23.124;2022-12-26T18:05:59;6.03;;;3.80;;
10717;SDS011;13513;42.700;23.124;2022-12-26T18:08:34;50.63;;;25.13;;
10717;SDS011;13513;42.700;23.124;2022-12-26T18:11:09;56.13;;;21.90;;
10717;SDS011;13513;42.700;23.124;2022-12-26T18:13:42;79.13;;;38.07;;
10717;SDS011;13513;42.700;23.124;2022-12-26T18:16:16;69.90;;;30.83;;
10717;SDS011;13513;42.700;23.124;2022-12-26T18:18:50;74.43;;;30.00;;
10717;SDS011;13513;42.700;23.124;2022-12-26T18:21:21;7.83;;;3.53;;